Time;durP1;ratioP1;P1;durP2;ratioP2;P2;SDS_P1;SDS_P2;PMS_P1;PMS_P2;Temp;Humidity;BMP_temperature;BMP_pressure;BME280_temperature;BME280_humidity;BME280_pressure;Samples;Min_cycle;Max_cycle;Signal;HPM_P1;HPM_P2
2022/06/18 00:00:42;;;;;;;5.20;3.50;;;;;;;17.73;79.20;96928.25;5069111;28;20200;-71
2022/06/18 00:03:10;;;;;;;5.05;3.35;;;;;;;17.46;80.42;96929.25;5068713;28;20204;-71
2022/06/18 00:05:37;;;;;;;6.72;3.25;;;;;;;17.78;80.66;96923.16;5068979;28;20589;-72
2022/06/18 00:08:08;;;;;;;6.32;3.45;;;;;;;17.96;79.53;96918.84;5068018;28;20204;-71
2022/06/18 00:10:34;;;;;;;5.97;3.58;;;;;;;17.93;80.00;96916.56;5068924;28;20204;-71
2022/06/18 00:13:40;;;;;;;4.97;3.30;;;;;;;18.18;80.29;96914.16;5068645;28;20681;-72
2022/06/18 00:16:09;;;;;;;8.27;3.40;;;;;;;17.97;79.80;96912.50;5068332;28;20204;-72
2022/06/18 00:18:36;;;;;;;6.72;3.22;;;;;;;17.42;79.39;96922.69;5068638;28;20224;-71
2022/06/18 00:21:05;;;;;;;8.43;3.13;;;;;;;17.78;79.06;96926.66;5068737;28;20610;-72
2022/06/18 00:23:32;;;;;;;7.00;3.50;;;;;;;17.72;79.59;96927.47;5068477;28;20204;-72
2022/06/18 00:25:59;;;;;;;6.05;3.15;;;;;;;17.82;79.49;96927.06;5068557;28;20212;-72
2022/06/18 00:28:29;;;;;;;5.38;3.40;;;;;;;17.86;77.01;96917.63;5068708;28;20208;-72
2022/06/18 00:30:56;;;;;;;8.88;3.70;;;;;;;17.49;77.56;96920.88;5068102;28;20274;-72
2022/06/18 00:33:23;;;;;;;5.32;3.55;;;;;;;17.35;80.39;96921.88;5068472;28;20205;-71
2022/06/18 00:35:52;;;;;;;6.82;3.88;;;;;;;17.28;82.51;96918.38;5068491;28;20204;-72
2022/06/18 00:38:25;;;;;;;8.13;4.70;;;;;;;17.35;82.94;96918.38;5068358;28;21163;-72
2022/06/18 00:40:52;;;;;;;7.22;4.60;;;;;;;17.24;82.86;96916.28;5068561;28;20721;-72
2022/06/18 00:43:22;;;;;;;9.10;5.75;;;;;;;17.43;81.70;96911.03;5067653;28;20616;-72
2022/06/18 00:45:53;;;;;;;11.75;6.45;;;;;;;17.39;81.32;96904.47;5068588;28;20213;-72
2022/06/18 00:48:24;;;;;;;10.60;6.28;;;;;;;17.44;80.76;96911.88;5068631;28;20219;-72
2022/06/18 00:50:55;;;;;;;13.48;6.70;;;;;;;17.53;79.96;96913.31;5068241;28;20227;-71
2022/06/18 00:53:26;;;;;;;8.73;4.85;;;;;;;17.57;80.59;96902.03;5068095;28;20205;-72
2022/06/18 00:55:57;;;;;;;8.23;4.35;;;;;;;17.54;80.22;96898.94;5068149;28;20212;-71
2022/06/18 00:58:29;;;;;;;7.78;4.20;;;;;;;17.33;81.00;96899.13;5068349;28;20228;-72
2022/06/18 01:00:59;;;;;;;10.52;5.10;;;;;;;17.26;80.87;96898.28;5068003;28;20220;-72
2022/06/18 01:03:29;;;;;;;7.80;5.13;;;;;;;17.21;81.60;96898.88;5067865;28;20574;-72
2022/06/18 01:05:58;;;;;;;7.05;4.03;;;;;;;17.29;80.77;96897.91;5068183;28;20196;-72
2022/06/18 01:08:29;;;;;;;8.95;5.50;;;;;;;17.44;79.94;96899.34;5068018;28;20279;-72
2022/06/18 01:10:59;;;;;;;8.48;5.10;;;;;;;17.21;80.18;96901.53;5068495;28;20231;-72
2022/06/18 01:13:31;;;;;;;8.45;4.95;;;;;;;16.97;81.16;96897.75;5067868;28;20207;-71
2022/06/18 01:16:00;;;;;;;8.40;5.80;;;;;;;17.22;80.94;96887.19;5068072;28;20197;-71
2022/06/18 01:18:27;;;;;;;10.00;4.90;;;;;;;17.28;80.18;96885.59;5067836;28;20583;-71
2022/06/18 01:21:00;;;;;;;7.47;4.70;;;;;;;17.21;80.20;96880.22;5071843;28;20228;-71
2022/06/18 01:23:35;;;;;;;9.75;4.68;;;;;;;17.21;80.67;96882.06;5071790;28;20204;-71
2022/06/18 01:26:04;;;;;;;10.15;4.70;;;;;;;16.94;80.86;96876.88;5071731;28;20235;-72
2022/06/18 01:28:30;;;;;;;8.45;4.90;;;;;;;16.67;80.94;96881.28;5071602;28;20205;-72
2022/06/18 01:30:57;;;;;;;8.02;3.47;;;;;;;16.93;80.97;96868.06;5071879;28;20235;-71
2022/06/18 01:33:24;;;;;;;6.85;3.50;;;;;;;16.71;81.45;96873.72;5071040;28;20227;-72
2022/06/18 01:35:53;;;;;;;4.47;3.35;;;;;;;16.82;82.05;96873.97;5071921;28;20212;-72
2022/06/18 01:38:20;;;;;;;7.60;4.00;;;;;;;16.44;82.90;96884.47;5071310;28;20216;-71
2022/06/18 01:40:52;;;;;;;4.82;3.33;;;;;;;16.55;83.83;96882.88;5071790;28;20201;-71
2022/06/18 01:43:23;;;;;;;6.15;4.05;;;;;;;16.55;84.50;96882.06;5071031;28;20204;-72
2022/06/18 01:45:59;;;;;;;9.38;4.90;;;;;;;16.62;83.84;96888.22;5071367;28;20211;-72
2022/06/18 01:48:30;;;;;;;7.75;4.13;;;;;;;16.71;83.26;96882.53;5070672;28;20211;-72
2022/06/18 01:51:00;;;;;;;5.72;4.03;;;;;;;16.59;83.42;96878.78;5071209;28;20224;-72
2022/06/18 01:53:30;;;;;;;7.85;4.45;;;;;;;16.63;82.98;96881.88;5070734;28;20201;-72
2022/06/18 01:56:01;;;;;;;7.80;4.15;;;;;;;16.80;83.67;96885.84;5071147;28;20219;-72
2022/06/18 01:58:34;;;;;;;7.05;4.03;;;;;;;16.42;84.22;96883.81;5071182;28;20239;-72
2022/06/18 02:01:02;;;;;;;7.13;4.28;;;;;;;16.54;83.16;96885.72;5070880;28;20239;-72
2022/06/18 02:03:29;;;;;;;7.78;3.97;;;;;;;16.61;83.74;96892.72;5071064;28;20204;-71
2022/06/18 02:05:56;;;;;;;5.95;3.92;;;;;;;16.72;83.45;96880.69;5071349;28;20211;-71
2022/06/18 02:08:23;;;;;;;5.32;3.55;;;;;;;16.35;83.89;96875.81;5071144;28;20676;-71
2022/06/18 02:10:53;;;;;;;11.95;4.15;;;;;;;16.37;81.98;96876.44;5070903;28;20220;-71
2022/06/18 02:13:24;;;;;;;7.18;3.53;;;;;;;16.35;82.86;96875.81;5071001;28;20215;-71
2022/06/18 02:15:54;;;;;;;8.50;3.63;;;;;;;16.19;82.57;96869.97;5071261;28;20208;-71
2022/06/18 02:18:20;;;;;;;10.40;3.40;;;;;;;16.13;82.67;96871.56;5070882;28;20224;-71
2022/06/18 02:20:51;;;;;;;5.43;3.38;;;;;;;16.10;83.18;96879.09;5070755;28;20287;-71
2022/06/18 02:23:18;;;;;;;6.65;3.70;;;;;;;15.90;84.45;96868.34;5070164;28;20197;-71
2022/06/18 02:25:45;;;;;;;7.95;4.15;;;;;;;15.85;84.55;96868.09;5071086;28;20204;-71
2022/06/18 02:28:19;;;;;;;6.72;3.75;;;;;;;16.22;83.93;96869.59;5071004;28;20545;-71
2022/06/18 02:30:46;;;;;;;5.72;3.47;;;;;;;16.08;82.77;96867.88;5069532;28;20861;-71
2022/06/18 02:33:24;;;;;;;9.38;3.65;;;;;;;16.01;82.93;96862.50;5070399;28;20208;-71
2022/06/18 02:35:51;;;;;;;6.22;3.35;;;;;;;15.70;84.27;96857.78;5070526;28;20217;-71
2022/06/18 02:38:20;;;;;;;6.32;3.20;;;;;;;15.50;83.96;96854.16;5070687;28;20221;-71
2022/06/18 02:40:47;;;;;;;4.40;3.35;;;;;;;15.39;85.40;96857.34;5070128;28;20196;-71
2022/06/18 02:43:16;;;;;;;7.55;3.20;;;;;;;15.70;84.89;96850.63;5070157;28;20201;-71
2022/06/18 02:45:53;;;;;;;7.53;2.63;;;;;;;15.87;84.11;96854.63;5070289;28;20200;-71
2022/06/18 02:48:26;;;;;;;6.72;3.10;;;;;;;16.02;84.04;96845.50;5069381;28;20208;-71
2022/06/18 02:50:52;;;;;;;5.97;2.90;;;;;;;15.86;83.57;96848.50;5070461;28;20223;-71
2022/06/18 02:53:19;;;;;;;6.70;3.00;;;;;;;15.88;83.58;96840.31;5066889;22;20229;-87
2022/06/18 02:55:47;;;;;;;4.88;3.00;;;;;;;16.08;82.85;96836.75;5038875;28;20208;-87
2022/06/18 02:58:18;;;;;;;6.13;3.10;;;;;;;16.03;83.08;96828.56;5039852;28;20209;-87
2022/06/18 03:00:48;;;;;;;6.15;3.03;;;;;;;16.00;83.92;96830.81;5038756;28;20621;-87
2022/06/18 03:03:16;;;;;;;6.82;3.38;;;;;;;16.07;83.29;96823.69;5038334;28;20672;-87
2022/06/18 03:05:44;;;;;;;4.40;3.00;;;;;;;16.19;84.57;96828.25;5038353;28;20216;-87
2022/06/18 03:08:11;;;;;;;4.35;2.88;;;;;;;16.21;82.81;96831.50;5039881;28;20216;-88
2022/06/18 03:13:22;;;;;;;5.18;3.33;;;;;;;15.73;83.90;96823.66;5037874;28;20302;-88
2022/06/18 03:15:51;;;;;;;5.18;3.03;;;;;;;15.71;85.99;96820.38;5038602;28;20210;-87
2022/06/18 03:18:20;;;;;;;7.43;3.05;;;;;;;16.00;83.15;96828.16;5039633;28;20205;-87
2022/06/18 03:20:59;;;;;;;5.03;2.70;;;;;;;16.01;82.69;96825.28;5038950;28;20207;-87
2022/06/18 03:23:27;;;;;;;9.95;3.30;;;;;;;15.85;83.98;96819.47;5038560;28;20774;-87
2022/06/18 03:25:54;;;;;;;4.85;3.30;;;;;;;15.88;83.98;96821.72;5037858;28;20208;-87
2022/06/18 03:28:23;;;;;;;8.13;3.30;;;;;;;15.82;84.04;96819.03;5038696;28;20213;-87
2022/06/18 03:30:50;;;;;;;6.57;3.25;;;;;;;15.30;85.86;96808.03;5039118;28;20205;-87
2022/06/18 03:33:16;;;;;;;4.82;3.15;;;;;;;15.33;85.62;96818.25;5038422;28;20221;-87
2022/06/18 03:35:45;;;;;;;5.70;3.13;;;;;;;15.43;85.51;96816.09;5038591;28;20294;-87
2022/06/18 03:38:14;;;;;;;4.97;3.00;;;;;;;15.65;84.98;96820.34;5038420;28;20383;-87
2022/06/18 03:40:41;;;;;;;5.22;3.00;;;;;;;15.39;85.86;96820.97;5038400;28;20695;-88
2022/06/18 03:43:08;;;;;;;4.53;3.15;;;;;;;15.36;86.38;96820.53;5038190;28;20228;-87
2022/06/18 03:45:37;;;;;;;4.07;2.97;;;;;;;15.34;86.68;96815.41;5038474;28;20240;-87
2022/06/18 03:48:05;;;;;;;6.75;3.63;;;;;;;15.40;86.42;96824.44;5038038;28;20212;-87
2022/06/18 03:50:32;;;;;;;6.60;3.15;;;;;;;15.02;88.33;96831.03;5039712;28;20722;-86
2022/06/18 03:52:58;;;;;;;7.45;3.90;;;;;;;15.24;88.22;96825.53;5038608;28;20239;-87
2022/06/18 03:55:27;;;;;;;7.38;4.20;;;;;;;15.64;87.94;96827.47;5039533;28;20209;-87
2022/06/18 03:57:53;;;;;;;8.32;4.18;;;;;;;15.63;88.09;96825.00;5038526;28;20205;-87
2022/06/18 04:00:23;;;;;;;7.40;4.05;;;;;;;15.76;88.70;96827.75;5039734;28;20229;-87
2022/06/18 04:02:50;;;;;;;7.28;3.88;;;;;;;15.78;88.50;96823.09;5039393;28;20233;-87
2022/06/18 04:05:16;;;;;;;7.80;3.97;;;;;;;15.84;88.50;96822.31;5037981;28;20205;-87
2022/06/18 04:07:44;;;;;;;6.70;4.03;;;;;;;15.90;88.71;96820.50;5038325;28;20607;-88
2022/06/18 04:10:17;;;;;;;6.22;3.05;;;;;;;15.88;86.65;96819.91;5038177;28;20632;-87
2022/06/18 04:12:45;;;;;;;7.75;3.33;;;;;;;15.92;86.13;96823.81;5037793;28;20284;-87
2022/06/18 04:15:13;;;;;;;10.57;3.33;;;;;;;15.79;86.25;96819.41;5037755;28;20209;-87
2022/06/18 04:17:40;;;;;;;4.63;2.80;;;;;;;15.68;86.51;96817.28;5038153;28;20295;-87
2022/06/18 04:20:08;;;;;;;5.60;3.38;;;;;;;15.53;88.03;96828.03;5038530;28;20220;-87
2022/06/18 04:22:35;;;;;;;5.90;3.53;;;;;;;15.83;87.12;96824.13;5037627;28;20252;-87
2022/06/18 04:25:01;;;;;;;7.07;3.10;;;;;;;15.90;89.02;96817.03;5037647;28;20231;-87
2022/06/18 04:27:28;;;;;;;4.75;3.28;;;;;;;15.86;89.51;96816.59;5037536;28;20212;-87
2022/06/18 04:29:56;;;;;;;5.38;3.40;;;;;;;16.12;90.81;96822.06;5038440;28;20208;-87
2022/06/18 04:32:23;;;;;;;4.70;3.58;;;;;;;16.01;89.18;96830.59;5037026;28;20232;-87
2022/06/18 04:34:49;;;;;;;10.00;3.63;;;;;;;16.23;87.91;96837.47;5038565;28;20213;-87
2022/06/18 04:37:16;;;;;;;7.65;3.80;;;;;;;16.43;87.60;96830.41;5038787;28;20582;-88
2022/06/18 04:39:42;;;;;;;5.32;4.03;;;;;;;16.58;87.56;96831.91;5037638;28;20460;-87
2022/06/18 04:42:09;;;;;;;7.28;4.95;;;;;;;16.77;85.82;96828.50;5037623;28;20232;-87
2022/06/18 04:44:35;;;;;;;9.18;4.35;;;;;;;16.77;86.39;96836.47;5037675;28;20205;-87
2022/06/18 04:47:04;;;;;;;7.57;4.70;;;;;;;16.97;86.29;96839.19;5037819;28;20212;-87
2022/06/18 04:49:30;;;;;;;7.15;4.35;;;;;;;16.95;86.33;96833.25;5037860;28;20205;-87
2022/06/18 04:51:57;;;;;;;10.27;4.45;;;;;;;17.08;86.75;96841.25;5038838;28;20236;-87
2022/06/18 04:54:23;;;;;;;5.53;4.18;;;;;;;17.22;86.25;96839.25;5039886;28;20205;-87
2022/06/18 04:56:50;;;;;;;5.10;3.72;;;;;;;17.18;84.54;96838.03;5043062;28;20209;-88
2022/06/18 04:59:16;;;;;;;6.50;4.25;;;;;;;17.29;83.28;96834.75;5041397;28;20239;-87
2022/06/18 05:01:43;;;;;;;6.82;4.18;;;;;;;17.56;82.36;96836.41;5041598;28;20616;-87
2022/06/18 05:04:11;;;;;;;11.13;4.50;;;;;;;17.83;81.77;96833.53;5040748;28;20205;-88
2022/06/18 05:06:38;;;;;;;6.70;4.00;;;;;;;17.86;82.06;96827.78;5040177;28;20360;-87
2022/06/18 05:09:04;;;;;;;6.70;4.18;;;;;;;17.92;81.62;96834.13;5039382;28;20451;-88
2022/06/18 05:11:31;;;;;;;5.55;3.90;;;;;;;17.71;78.73;96833.56;5038859;28;20674;-88
2022/06/18 05:13:57;;;;;;;6.53;4.10;;;;;;;17.86;78.41;96838.44;5038789;28;20211;-87
2022/06/18 05:16:24;;;;;;;9.77;4.82;;;;;;;18.17;77.84;96840.44;5039562;28;20201;-87
2022/06/18 05:18:51;;;;;;;8.73;4.10;;;;;;;18.31;78.67;96837.56;5039274;28;20216;-87
2022/06/18 05:21:19;;;;;;;7.28;4.45;;;;;;;18.39;76.98;96835.50;5039075;28;20205;-87
2022/06/18 05:23:45;;;;;;;11.70;5.00;;;;;;;18.59;75.71;96836.22;5038922;28;20227;-87
2022/06/18 05:26:15;;;;;;;5.88;4.10;;;;;;;18.78;76.71;96834.50;5038754;28;20209;-88
2022/06/18 05:28:41;;;;;;;6.55;4.30;;;;;;;18.73;76.46;96837.00;5039422;28;20499;-87
2022/06/18 05:31:08;;;;;;;6.50;4.20;;;;;;;18.89;75.52;96839.16;5039576;28;20666;-87
2022/06/18 05:33:34;;;;;;;8.10;4.20;;;;;;;18.89;75.23;96841.81;5039883;28;20243;-88
2022/06/18 05:36:01;;;;;;;6.50;4.65;;;;;;;19.10;73.50;96839.69;5039146;28;20577;-88
2022/06/18 05:38:29;;;;;;;6.97;4.50;;;;;;;18.99;73.72;96832.31;5038800;28;20201;-87
2022/06/18 05:40:55;;;;;;;8.98;3.97;;;;;;;19.11;73.23;96825.31;5038762;28;20248;-88
2022/06/18 05:43:22;;;;;;;6.43;4.40;;;;;;;19.09;72.85;96832.69;5039156;28;20232;-87
2022/06/18 05:45:49;;;;;;;7.13;4.50;;;;;;;19.04;73.03;96835.16;5038952;28;20224;-87
2022/06/18 05:48:15;;;;;;;6.72;4.65;;;;;;;19.19;72.18;96835.72;5038677;28;21121;-86
2022/06/18 05:50:42;;;;;;;6.82;4.40;;;;;;;19.46;72.50;96829.97;5039132;28;20411;-87
2022/06/18 05:53:09;;;;;;;8.85;4.47;;;;;;;19.48;70.55;96832.44;5039048;28;20779;-87
2022/06/18 05:55:37;;;;;;;7.18;4.35;;;;;;;19.67;69.90;96833.09;5038822;28;20658;-87
2022/06/18 05:58:04;;;;;;;8.05;4.65;;;;;;;19.63;70.90;96831.88;5039158;28;20684;-87
2022/06/18 06:00:32;;;;;;;8.25;4.78;;;;;;;19.80;71.21;96827.63;5037737;28;20228;-87
2022/06/18 06:02:59;;;;;;;8.75;4.10;;;;;;;19.96;71.18;96832.47;5038844;28;20701;-87
2022/06/18 06:05:25;;;;;;;6.72;4.22;;;;;;;20.17;70.87;96840.06;5038618;28;20689;-87
2022/06/18 06:07:52;;;;;;;7.78;4.38;;;;;;;20.17;69.40;96840.06;5038540;28;20745;-87
2022/06/18 06:13:10;;;;;;;6.65;3.83;;;;;;;20.44;68.91;96830.69;5039167;28;20236;-87
2022/06/18 06:15:38;;;;;;;7.05;4.15;;;;;;;20.38;68.04;96831.59;5038766;28;20228;-87
2022/06/18 06:18:05;;;;;;;7.07;4.18;;;;;;;20.32;68.06;96841.31;5038947;28;20611;-87
2022/06/18 06:20:35;;;;;;;6.82;3.97;;;;;;;20.74;68.13;96834.28;5038814;28;20702;-87
2022/06/18 06:23:02;;;;;;;7.47;4.30;;;;;;;20.71;66.85;96829.34;5038062;28;20312;-87
2022/06/18 06:25:29;;;;;;;5.03;3.58;;;;;;;21.03;66.24;96826.28;5038553;28;20263;-87
2022/06/18 06:27:55;;;;;;;8.15;3.72;;;;;;;21.17;65.13;96833.09;5039102;28;20212;-87
2022/06/18 06:30:23;;;;;;;7.63;3.80;;;;;;;21.45;65.73;96831.41;5038834;28;20568;-87
2022/06/18 06:32:50;;;;;;;5.55;3.63;;;;;;;21.49;66.06;96821.84;5038666;28;20228;-87
2022/06/18 06:35:16;;;;;;;9.55;4.00;;;;;;;21.49;66.01;96829.91;5043542;28;20221;-87
2022/06/18 06:37:43;;;;;;;5.20;3.25;;;;;;;21.83;64.15;96827.31;5043495;28;20213;-87
2022/06/18 06:40:13;;;;;;;5.53;3.88;;;;;;;22.00;64.08;96817.50;5043640;28;20589;-87
2022/06/18 06:42:42;;;;;;;5.93;3.60;;;;;;;22.26;62.98;96822.41;5038641;28;20237;-88
2022/06/18 06:45:12;;;;;;;5.75;3.72;;;;;;;22.07;62.71;96815.50;5039163;28;20898;-87
2022/06/18 06:47:40;;;;;;;9.57;3.83;;;;;;;22.10;63.11;96815.88;5038565;28;20228;-87
2022/06/18 06:50:07;;;;;;;7.20;4.20;;;;;;;22.02;62.75;96811.91;5038083;28;20209;-87
2022/06/18 06:52:34;;;;;;;6.30;4.25;;;;;;;21.99;64.24;96812.38;5038751;28;20241;-87
2022/06/18 06:57:43;;;;;;;7.82;4.00;;;;;;;22.60;62.05;96811.63;5042784;28;20688;-87
2022/06/18 07:00:10;;;;;;;6.05;3.80;;;;;;;22.55;62.23;96819.56;5042339;28;20303;-87
2022/06/18 07:02:37;;;;;;;6.90;3.67;;;;;;;22.51;61.29;96802.31;5038993;28;20523;-87
2022/06/18 07:05:06;;;;;;;9.50;3.67;;;;;;;22.99;61.52;96795.50;5039017;28;20473;-88
2022/06/18 07:07:33;;;;;;;7.90;3.95;;;;;;;22.94;61.45;96799.97;5038409;28;20487;-88
2022/06/18 07:09:59;;;;;;;5.60;3.70;;;;;;;23.15;61.35;96800.09;5039902;28;20201;-88
2022/06/18 07:12:25;;;;;;;5.25;3.65;;;;;;;23.07;59.28;96794.31;5038237;28;20232;-88
2022/06/18 07:14:52;;;;;;;5.88;3.60;;;;;;;23.08;59.39;96794.06;5038325;28;20209;-88
2022/06/18 07:17:19;;;;;;;5.03;3.20;;;;;;;23.47;59.83;96785.91;5038053;28;20209;-87
2022/06/18 07:19:46;;;;;;;8.18;3.70;;;;;;;23.46;59.89;96784.28;5038480;28;20221;-88
2022/06/18 07:22:14;;;;;;;4.43;3.05;;;;;;;23.83;59.13;96784.63;5043176;28;21313;-88
2022/06/18 07:24:41;;;;;;;6.13;3.17;;;;;;;23.81;59.52;96773.28;5042576;28;20232;-88
2022/06/18 07:27:07;;;;;;;5.72;3.63;;;;;;;23.71;58.22;96790.09;5043119;28;20206;-88
2022/06/18 07:29:35;;;;;;;3.38;2.88;;;;;;;24.18;59.37;96791.34;5044256;28;20208;-88
2022/06/18 07:32:05;;;;;;;5.80;2.72;;;;;;;24.54;51.84;96780.00;5043954;28;20225;-88
2022/06/18 07:34:32;;;;;;;4.63;2.58;;;;;;;24.48;53.26;96783.69;5039417;28;20213;-88
2022/06/18 07:36:58;;;;;;;4.47;2.97;;;;;;;24.61;54.52;96782.25;5044123;28;20201;-88
2022/06/18 07:39:26;;;;;;;3.40;2.35;;;;;;;24.80;52.37;96780.06;5043883;28;20205;-88
2022/06/18 07:41:54;;;;;;;3.78;2.83;;;;;;;24.65;50.86;96778.00;5046833;28;20236;-88
2022/06/18 07:44:21;;;;;;;5.80;2.67;;;;;;;24.68;52.37;96772.13;5049113;28;20212;-87
2022/06/18 07:46:48;;;;;;;4.15;2.75;;;;;;;24.86;51.17;96777.19;5050344;28;20212;-88
2022/06/18 07:49:14;;;;;;;3.42;2.78;;;;;;;24.84;51.41;96763.13;5045884;28;20244;-89
2022/06/18 07:51:41;;;;;;;4.68;2.75;;;;;;;25.12;52.82;96765.63;5045045;28;20912;-88
2022/06/18 07:54:07;;;;;;;4.78;2.58;;;;;;;25.18;50.13;96762.72;5048410;28;20205;-88
2022/06/18 07:56:35;;;;;;;7.50;2.78;;;;;;;25.11;50.00;96755.09;5046411;28;20205;-87
2022/06/18 07:59:02;;;;;;;6.70;2.60;;;;;;;25.29;50.76;96752.84;5047412;28;20232;-88
2022/06/18 08:01:28;;;;;;;5.35;2.95;;;;;;;25.64;51.89;96755.84;5049921;28;20209;-88
2022/06/18 08:03:55;;;;;;;5.65;2.50;;;;;;;25.54;51.21;96755.78;5045968;28;20205;-88
2022/06/18 08:06:21;;;;;;;5.05;2.60;;;;;;;25.68;50.80;96746.97;5051946;28;20209;-88
2022/06/18 08:08:48;;;;;;;5.80;2.50;;;;;;;25.78;48.80;96754.38;5043998;28;20571;-88
2022/06/18 08:11:16;;;;;;;4.40;2.42;;;;;;;25.91;49.57;96747.44;5045206;28;20212;-87
2022/06/18 08:13:44;;;;;;;3.78;2.53;;;;;;;26.18;47.90;96750.03;5047590;28;20596;-88
2022/06/18 08:16:13;;;;;;;2.72;2.45;;;;;;;26.27;48.00;96743.88;5047364;28;20209;-88
2022/06/18 08:18:39;;;;;;;3.22;2.28;;;;;;;26.23;46.13;96744.66;5047257;28;20209;-88
2022/06/18 08:21:11;;;;;;;4.05;2.70;;;;;;;26.26;46.70;96744.97;5048489;28;20239;-88
2022/06/18 08:23:38;;;;;;;6.45;3.05;;;;;;;26.07;46.18;96746.47;5046647;28;20225;-88
2022/06/18 08:26:06;;;;;;;2.65;2.30;;;;;;;26.49;47.50;96739.97;5043909;28;20231;-88
2022/06/18 08:28:33;;;;;;;2.67;2.05;;;;;;;26.50;46.70;96743.47;5042590;28;20444;-88
2022/06/18 08:31:04;;;;;;;3.75;2.20;;;;;;;26.67;47.69;96741.41;5047454;28;20205;-88
2022/06/18 08:33:31;;;;;;;5.40;2.38;;;;;;;26.87;46.06;96736.88;5047335;28;20690;-88
2022/06/18 08:35:58;;;;;;;5.38;2.85;;;;;;;26.73;46.48;96735.75;5044380;28;20664;-88
2022/06/18 08:38:25;;;;;;;3.40;2.33;;;;;;;27.01;44.64;96731.78;5048775;28;20204;-88
2022/06/18 08:41:07;;;;;;;3.50;2.63;;;;;;;27.37;46.54;96726.16;5042218;28;20233;-88
2022/06/18 08:44:18;;;;;;;3.60;2.53;;;;;;;27.36;45.41;96728.03;5045411;28;20236;-88
2022/06/18 08:46:54;;;;;;;2.72;2.28;;;;;;;27.41;43.78;96722.63;5016285;28;20661;-87
2022/06/18 08:49:42;;;;;;;3.70;2.45;;;;;;;27.57;44.69;96720.78;5044595;28;20554;-88
2022/06/18 08:52:25;;;;;;;5.80;2.60;;;;;;;27.65;46.50;96725.63;5044756;28;20240;-88
2022/06/18 08:55:01;;;;;;;3.28;2.50;;;;;;;27.51;44.09;96719.94;5045171;28;20216;-88
2022/06/18 08:57:35;;;;;;;7.28;2.20;;;;;;;27.68;44.66;96717.78;5043764;28;20661;-88
2022/06/18 09:00:11;;;;;;;6.68;2.30;;;;;;;27.45;43.48;96718.28;5044228;28;20559;-88
2022/06/18 09:02:44;;;;;;;4.35;2.45;;;;;;;27.65;43.67;96729.19;5041937;28;20224;-88
2022/06/18 09:05:23;;;;;;;5.75;2.60;;;;;;;27.73;43.30;96721.28;5042534;28;20201;-88
2022/06/18 09:08:15;;;;;;;3.95;2.50;;;;;;;27.98;43.10;96726.69;5042579;28;20201;-88
2022/06/18 09:11:04;;;;;;;4.93;2.50;;;;;;;28.06;44.53;96725.34;5042582;28;20197;-88
2022/06/18 09:13:36;;;;;;;4.10;2.53;;;;;;;28.04;44.19;96716.66;5045507;28;20229;-88
2022/06/18 09:16:07;;;;;;;5.43;2.30;;;;;;;28.29;43.54;96724.75;5042583;28;20235;-88
2022/06/18 09:18:40;;;;;;;4.70;2.50;;;;;;;28.50;45.15;96714.38;5043752;28;20205;-88
2022/06/18 09:21:12;;;;;;;6.50;2.38;;;;;;;28.36;40.67;96707.94;5045327;28;20224;-88
2022/06/18 09:23:43;;;;;;;3.50;2.28;;;;;;;28.52;43.12;96714.91;5040389;28;20232;-88
2022/06/18 09:26:15;;;;;;;4.25;2.50;;;;;;;28.91;43.56;96705.00;5043902;28;20209;-89
2022/06/18 09:28:47;;;;;;;3.97;2.35;;;;;;;28.80;42.05;96699.91;5048261;28;20205;-89
2022/06/18 09:31:20;;;;;;;3.72;2.20;;;;;;;28.96;42.51;96705.75;5044968;28;20205;-88
2022/06/18 09:33:53;;;;;;;2.95;2.40;;;;;;;29.17;41.65;96698.31;5045250;28;20228;-88
2022/06/18 09:36:23;;;;;;;3.83;3.42;;;;;;;29.42;42.45;96698.16;5043733;28;20198;-88
2022/06/18 09:38:57;;;;;;;8.48;2.60;;;;;;;29.31;40.20;96696.59;5043454;28;20198;-88
2022/06/18 09:41:27;;;;;;;2.75;2.17;;;;;;;29.53;42.41;96696.97;5045498;28;20661;-88
2022/06/18 09:44:01;;;;;;;4.03;2.78;;;;;;;29.68;42.20;96697.66;5048968;28;20212;-89
2022/06/18 09:46:34;;;;;;;5.13;2.67;;;;;;;29.67;40.74;96693.31;5049106;28;20200;-88
2022/06/18 09:49:01;;;;;;;4.53;2.40;;;;;;;29.51;40.43;96691.03;5050247;28;20237;-89
2022/06/18 09:51:36;;;;;;;4.22;2.70;;;;;;;30.09;41.77;96694.28;5049045;28;20201;-88
2022/06/18 09:54:05;;;;;;;5.13;2.45;;;;;;;30.21;40.66;96687.34;5051000;28;20739;-89
2022/06/18 09:56:35;;;;;;;2.72;2.40;;;;;;;30.16;41.86;96683.88;5048693;28;20233;-89
2022/06/18 09:59:09;;;;;;;4.05;2.70;;;;;;;30.40;38.96;96680.06;5048564;28;20581;-89
2022/06/18 10:01:38;;;;;;;3.85;2.70;;;;;;;30.33;39.29;96684.22;5050570;28;20558;-88
2022/06/18 10:06:56;;;;;;;3.97;2.50;;;;;;;29.96;37.45;96672.41;5045788;28;20215;-88
2022/06/18 10:09:32;;;;;;;3.90;2.30;;;;;;;30.10;36.17;96674.16;5048126;28;20200;-88
2022/06/18 10:12:00;;;;;;;3.50;2.22;;;;;;;30.22;36.56;96677.28;5047542;28;20254;-88
2022/06/18 10:14:27;;;;;;;4.47;2.60;;;;;;;30.51;37.54;96670.72;5047435;28;20212;-89
2022/06/18 10:17:12;;;;;;;3.15;2.45;;;;;;;30.93;37.09;96668.78;5049165;28;21126;-89
2022/06/18 10:19:54;;;;;;;7.75;3.63;;;;;;;31.23;37.28;96668.34;5050458;28;20209;-89
2022/06/18 10:22:31;;;;;;;8.75;2.58;;;;;;;31.29;34.95;96660.88;5046131;28;20319;-89
2022/06/18 10:25:07;;;;;;;2.75;2.33;;;;;;;31.41;36.73;96667.50;5048586;28;20215;-89
2022/06/18 10:27:47;;;;;;;6.57;2.40;;;;;;;31.48;38.03;96663.34;5047815;28;20251;-88
2022/06/18 10:30:20;;;;;;;5.18;2.80;;;;;;;31.53;36.83;96657.81;5049132;28;20201;-89
2022/06/18 10:32:58;;;;;;;4.75;2.40;;;;;;;31.90;35.85;96648.69;5049580;28;20229;-89
2022/06/18 10:35:48;;;;;;;4.20;2.40;;;;;;;31.78;35.42;96653.81;5047476;28;20228;-89
2022/06/18 10:38:35;;;;;;;3.38;2.10;;;;;;;31.62;35.94;96649.75;5046660;28;20197;-89
2022/06/18 10:41:10;;;;;;;2.90;2.20;;;;;;;31.48;35.47;96650.81;5048207;28;20701;-89
2022/06/18 10:43:49;;;;;;;2.95;2.25;;;;;;;31.85;36.12;96644.16;5048613;28;20242;-89
2022/06/18 10:46:19;;;;;;;4.78;2.20;;;;;;;32.21;34.78;96647.84;5049382;28;20213;-89
2022/06/18 10:48:49;;;;;;;2.20;2.00;;;;;;;32.31;32.91;96644.94;5048766;28;20208;-90
2022/06/18 10:51:19;;;;;;;3.33;2.47;;;;;;;32.23;34.48;96640.97;5046092;28;20198;-89
2022/06/18 10:53:49;;;;;;;3.25;2.17;;;;;;;31.95;36.17;96630.34;5050276;28;20233;-89
2022/06/18 10:56:18;;;;;;;4.50;2.75;;;;;;;32.24;35.65;96631.69;5050281;28;20205;-89
2022/06/18 10:58:49;;;;;;;3.53;2.20;;;;;;;32.13;33.55;96619.34;5047744;28;20216;-89
2022/06/18 11:01:17;;;;;;;5.13;2.10;;;;;;;31.90;32.82;96624.16;5048067;28;20614;-89
2022/06/18 11:03:55;;;;;;;4.95;2.78;;;;;;;32.88;35.16;96626.78;5049282;28;20225;-89
2022/06/18 11:06:23;;;;;;;7.25;2.97;;;;;;;32.78;34.01;96624.25;5047786;28;20565;-90
2022/06/18 11:08:52;;;;;;;9.95;5.68;;;;;;;33.18;32.94;96615.16;5048894;28;20201;-89
2022/06/18 11:11:23;;;;;;;6.22;3.25;;;;;;;33.80;33.61;96617.69;5049098;28;20836;-89
2022/06/18 11:13:50;;;;;;;9.13;3.28;;;;;;;33.64;33.29;96618.41;5043163;28;20216;-88
2022/06/18 11:16:19;;;;;;;3.13;2.10;;;;;;;32.24;33.39;96619.94;5043817;28;20213;-89
2022/06/18 11:18:49;;;;;;;2.67;2.30;;;;;;;32.09;33.31;96622.19;5041611;28;20646;-88
2022/06/18 11:21:25;;;;;;;2.95;2.28;;;;;;;31.67;34.37;96620.50;5044252;28;20266;-89
2022/06/18 11:23:56;;;;;;;3.88;2.42;;;;;;;31.82;35.50;96611.22;5046100;28;20608;-89
2022/06/18 11:26:26;;;;;;;4.20;2.55;;;;;;;31.94;34.58;96596.00;5043793;28;20209;-89
2022/06/18 11:28:56;;;;;;;4.75;2.20;;;;;;;32.66;34.57;96604.06;5042438;28;20574;-89
2022/06/18 11:31:26;;;;;;;2.70;2.10;;;;;;;33.01;34.83;96597.81;5041455;28;20205;-88
2022/06/18 11:33:57;;;;;;;3.72;2.53;;;;;;;32.57;32.64;96594.97;5042288;28;20692;-89
2022/06/18 11:36:36;;;;;;;2.75;2.20;;;;;;;32.70;32.43;96602.31;5045562;28;20212;-88
2022/06/18 11:39:04;;;;;;;3.55;2.08;;;;;;;32.58;32.75;96601.25;5040449;28;20208;-89
2022/06/18 11:41:38;;;;;;;3.92;2.10;;;;;;;32.79;34.01;96595.84;5043616;28;20829;-89
2022/06/18 11:44:10;;;;;;;5.07;2.05;;;;;;;33.10;33.77;96595.97;5043025;28;20212;-89
2022/06/18 11:46:43;;;;;;;9.25;2.55;;;;;;;33.06;32.08;96592.25;5040341;28;20205;-89
2022/06/18 11:49:16;;;;;;;6.50;2.42;;;;;;;33.37;32.14;96591.97;5040591;28;20209;-89
2022/06/18 11:51:47;;;;;;;6.20;2.35;;;;;;;33.26;34.20;96589.00;5039058;28;20220;-89
2022/06/18 11:54:19;;;;;;;4.55;2.30;;;;;;;33.57;34.44;96586.03;5039219;28;20845;-89
2022/06/18 11:56:56;;;;;;;4.57;2.05;;;;;;;33.87;33.46;96587.94;5044251;28;20202;-89